Time;durP1;ratioP1;P1;durP2;ratioP2;P2;SDS_P1;SDS_P2;PMS_P1;PMS_P2;Temp;Humidity;BMP_temperature;BMP_pressure;BME280_temperature;BME280_humidity;BME280_pressure;Samples;Min_cycle;Max_cycle;Signal;HPM_P1;HPM_P2
2021/05/14 00:01:12;;;;;;;6.03;2.05;;;;;;;15.19;49.39;99559.44;5029729;28;20029;-74
2021/05/14 00:03:39;;;;;;;4.72;1.83;;;;;;;15.14;49.27;99570.31;5031871;28;20050;-77
2021/05/14 00:06:06;;;;;;;3.00;1.65;;;;;;;15.06;49.29;99575.31;5024425;28;20500;-75
2021/05/14 00:08:33;;;;;;;3.25;1.17;;;;;;;15.14;49.38;99567.69;5020322;28;20038;-75
2021/05/14 00:11:00;;;;;;;6.63;1.80;;;;;;;15.03;49.67;99561.63;5023054;28;20148;-73
2021/05/14 00:13:27;;;;;;;7.00;2.08;;;;;;;14.98;49.42;99559.34;5017967;28;20065;-74
2021/05/14 00:15:53;;;;;;;4.60;2.05;;;;;;;14.98;49.82;99569.03;5019131;28;20038;-74
2021/05/14 00:18:20;;;;;;;4.07;1.50;;;;;;;15.08;49.41;99562.91;5021990;28;20096;-74
2021/05/14 00:20:47;;;;;;;2.85;1.33;;;;;;;15.03;50.20;99565.06;5022491;28;20125;-74
2021/05/14 00:23:14;;;;;;;6.13;1.95;;;;;;;14.94;49.99;99566.63;5023460;28;20060;-73
2021/05/14 00:25:41;;;;;;;5.72;1.90;;;;;;;14.90;49.82;99564.34;5016709;28;20144;-73
2021/05/14 00:28:08;;;;;;;5.38;1.42;;;;;;;14.88;49.65;99566.28;5019760;28;20087;-74
2021/05/14 00:30:36;;;;;;;7.50;2.42;;;;;;;15.03;49.20;99564.25;5024403;28;20041;-74
2021/05/14 00:33:02;;;;;;;5.95;2.25;;;;;;;14.71;50.68;99569.41;5017755;28;20128;-73
2021/05/14 00:35:29;;;;;;;9.57;2.00;;;;;;;14.54;51.50;99560.19;5023735;28;20072;-73
2021/05/14 00:37:56;;;;;;;4.63;1.45;;;;;;;14.87;49.85;99564.63;5023685;28;20099;-73
2021/05/14 00:40:23;;;;;;;9.65;2.78;;;;;;;14.83;50.80;99568.44;5024004;28;20080;-74
2021/05/14 00:42:50;;;;;;;2.75;1.95;;;;;;;14.50;51.17;99559.59;5016996;28;20038;-74
2021/05/14 00:45:17;;;;;;;3.35;1.73;;;;;;;14.59;51.28;99556.25;5022379;28;20129;-73
2021/05/14 00:47:44;;;;;;;3.42;1.92;;;;;;;14.42;52.34;99562.78;5021338;28;20424;-73
2021/05/14 00:50:11;;;;;;;2.30;1.60;;;;;;;14.41;52.90;99565.50;5028797;28;20041;-72
2021/05/14 00:52:38;;;;;;;4.43;1.90;;;;;;;14.42;52.58;99565.38;5026199;28;20128;-72
2021/05/14 00:55:06;;;;;;;4.22;1.88;;;;;;;14.36;52.58;99570.28;5023419;28;20038;-71
2021/05/14 00:57:34;;;;;;;5.00;1.60;;;;;;;14.34;53.24;99572.19;5024597;28;20040;-72
2021/05/14 01:00:01;;;;;;;4.40;1.70;;;;;;;14.48;53.01;99569.34;5023616;28;20132;-73
2021/05/14 01:02:28;;;;;;;4.53;1.73;;;;;;;14.27;53.24;99571.81;5023097;28;20470;-71
2021/05/14 01:04:55;;;;;;;6.75;2.55;;;;;;;14.35;53.58;99568.59;5024683;28;20041;-73
2021/05/14 01:07:22;;;;;;;9.65;2.28;;;;;;;14.37;53.77;99570.16;5024119;28;20037;-72
2021/05/14 01:09:50;;;;;;;4.40;1.70;;;;;;;14.30;53.77;99570.75;5028095;28;20076;-73
2021/05/14 01:12:17;;;;;;;3.55;1.52;;;;;;;14.32;53.51;99566.22;5009924;28;20051;-72
2021/05/14 01:14:44;;;;;;;6.50;2.00;;;;;;;14.30;54.45;99568.13;5025603;28;20062;-72
2021/05/14 01:17:11;;;;;;;9.45;2.42;;;;;;;14.24;54.33;99565.97;5023287;28;20099;-73
2021/05/14 01:19:38;;;;;;;4.45;1.67;;;;;;;14.16;54.18;99558.66;5024039;28;20116;-74
2021/05/14 01:22:05;;;;;;;7.82;1.83;;;;;;;14.16;55.04;99569.16;5024452;28;20038;-74
2021/05/14 01:24:33;;;;;;;7.20;2.22;;;;;;;14.20;55.04;99567.97;5025259;28;20124;-74
2021/05/14 01:27:01;;;;;;;6.40;1.95;;;;;;;14.15;54.66;99567.50;5022744;28;20077;-74
2021/05/14 01:29:28;;;;;;;4.30;2.33;;;;;;;14.29;53.95;99569.09;5025425;28;20068;-75
2021/05/14 01:31:56;;;;;;;5.72;1.90;;;;;;;14.20;54.78;99575.84;5011737;28;20049;-74
2021/05/14 01:34:24;;;;;;;3.13;1.70;;;;;;;14.06;54.68;99563.81;5024638;28;20038;-74
2021/05/14 01:36:51;;;;;;;9.05;2.60;;;;;;;14.04;55.06;99573.53;5025744;28;20104;-74
2021/05/14 01:39:23;;;;;;;7.88;2.47;;;;;;;14.14;54.62;99571.91;5022523;28;20048;-73
2021/05/14 01:41:51;;;;;;;3.72;1.70;;;;;;;14.12;54.15;99567.75;5025740;28;20061;-75
2021/05/14 01:44:19;;;;;;;6.93;1.92;;;;;;;13.92;55.17;99571.84;5023204;28;20052;-78
2021/05/14 01:46:46;;;;;;;6.28;3.08;;;;;;;13.89;55.73;99566.81;5024662;28;20101;-76
2021/05/14 01:49:13;;;;;;;4.97;2.22;;;;;;;13.95;55.22;99561.13;5024771;28;20492;-74
2021/05/14 01:51:40;;;;;;;4.15;1.83;;;;;;;14.15;54.34;99563.09;5025165;28;20124;-75
2021/05/14 01:54:07;;;;;;;6.68;2.17;;;;;;;13.99;55.43;99578.28;5027253;28;20565;-75
2021/05/14 01:56:34;;;;;;;2.55;1.90;;;;;;;14.07;55.21;99564.63;5030499;28;20084;-76
2021/05/14 01:59:03;;;;;;;7.45;2.40;;;;;;;13.82;56.33;99561.22;5024538;28;20046;-76
2021/05/14 02:01:30;;;;;;;4.10;2.10;;;;;;;13.90;55.96;99552.75;5021249;28;20057;-75
2021/05/14 02:03:57;;;;;;;5.78;2.70;;;;;;;13.93;56.26;99551.72;5026154;28;20064;-74
2021/05/14 02:06:24;;;;;;;4.75;2.70;;;;;;;13.95;56.43;99555.88;5019551;28;20572;-75
2021/05/14 02:08:51;;;;;;;5.57;2.63;;;;;;;13.89;56.38;99551.94;5022225;28;20065;-75
2021/05/14 02:11:18;;;;;;;4.30;2.08;;;;;;;14.04;56.27;99546.50;5023691;28;20152;-73
2021/05/14 02:13:45;;;;;;;5.68;2.90;;;;;;;13.93;56.58;99549.94;5022004;28;20084;-75
2021/05/14 02:16:12;;;;;;;7.13;3.55;;;;;;;13.88;56.54;99554.69;5024679;28;21073;-75
2021/05/14 02:18:39;;;;;;;6.65;2.60;;;;;;;13.86;56.87;99551.34;5027878;28;20033;-74
2021/05/14 02:21:07;;;;;;;6.18;2.42;;;;;;;13.75;57.34;99548.69;5020962;28;20120;-74
2021/05/14 02:23:35;;;;;;;6.75;2.85;;;;;;;13.83;57.00;99547.16;5022514;28;20402;-74
2021/05/14 02:26:02;;;;;;;10.05;3.15;;;;;;;13.79;57.60;99550.13;5021864;28;20030;-75
2021/05/14 02:28:30;;;;;;;5.60;2.63;;;;;;;13.69;57.22;99542.13;5020593;28;20455;-77
2021/05/14 02:30:58;;;;;;;3.45;2.00;;;;;;;13.78;56.09;99543.22;5023254;28;20042;-78
2021/05/14 02:33:25;;;;;;;4.68;1.90;;;;;;;13.80;55.28;99543.94;5024268;28;20041;-76
2021/05/14 02:35:52;;;;;;;6.93;1.77;;;;;;;13.72;55.41;99534.03;5024924;28;20125;-77
2021/05/14 02:38:19;;;;;;;4.70;1.70;;;;;;;13.63;54.13;99539.94;5019965;28;20038;-77
2021/05/14 02:40:46;;;;;;;7.20;2.42;;;;;;;13.72;54.19;99538.44;5023586;28;20132;-77
2021/05/14 02:43:13;;;;;;;7.13;2.10;;;;;;;13.66;54.04;99541.50;5025026;28;20535;-76
2021/05/14 02:45:40;;;;;;;9.65;1.80;;;;;;;13.77;53.76;99541.53;5021540;28;20115;-77
2021/05/14 02:48:07;;;;;;;7.97;2.17;;;;;;;13.70;53.34;99537.72;5021348;28;20049;-77
2021/05/14 02:50:34;;;;;;;5.13;2.03;;;;;;;13.66;53.37;99546.75;5025285;28;20053;-77
2021/05/14 02:53:02;;;;;;;10.20;1.90;;;;;;;13.67;53.34;99540.56;5025716;28;20034;-77
2021/05/14 02:55:29;;;;;;;6.47;2.05;;;;;;;13.68;53.86;99543.06;5024197;28;20133;-77
2021/05/14 02:57:56;;;;;;;3.72;1.98;;;;;;;13.40;54.71;99552.09;5023212;28;20038;-78
2021/05/14 03:00:23;;;;;;;11.63;2.83;;;;;;;13.50;54.03;99552.28;5019318;28;20172;-78
2021/05/14 03:02:50;;;;;;;2.45;1.27;;;;;;;13.54;54.47;99551.09;5024898;28;20121;-78
2021/05/14 03:05:17;;;;;;;5.95;1.73;;;;;;;13.43;54.80;99553.69;5023680;28;20049;-78
2021/05/14 03:07:45;;;;;;;6.93;2.35;;;;;;;13.40;54.46;99557.34;5023800;28;20045;-77
2021/05/14 03:10:12;;;;;;;5.32;2.70;;;;;;;13.33;55.12;99559.56;5022406;28;20113;-77
2021/05/14 03:12:39;;;;;;;5.18;2.22;;;;;;;13.21;55.40;99562.19;5022224;28;20049;-77
2021/05/14 03:15:07;;;;;;;4.40;2.10;;;;;;;13.18;55.77;99559.81;5021262;28;20053;-78
2021/05/14 03:17:34;;;;;;;6.97;2.85;;;;;;;13.10;55.53;99563.81;5024637;28;20039;-78
2021/05/14 03:20:04;;;;;;;8.98;2.70;;;;;;;13.26;55.46;99558.34;5023990;28;20484;-77
2021/05/14 03:22:31;;;;;;;3.85;2.55;;;;;;;13.21;55.53;99559.56;5025351;28;20049;-76
2021/05/14 03:24:58;;;;;;;5.28;1.95;;;;;;;13.16;56.00;99551.25;5025526;28;20050;-77
2021/05/14 03:27:25;;;;;;;7.53;2.03;;;;;;;13.06;56.32;99557.13;5027486;28;20041;-77
2021/05/14 03:29:52;;;;;;;5.80;2.33;;;;;;;13.02;56.58;99549.59;5025386;28;20453;-75
2021/05/14 03:32:19;;;;;;;11.20;2.38;;;;;;;13.03;56.91;99553.88;5025498;28;20030;-75
2021/05/14 03:34:46;;;;;;;6.35;2.95;;;;;;;13.10;56.22;99557.72;5022712;28;20080;-75
2021/05/14 03:37:13;;;;;;;4.38;2.33;;;;;;;13.02;56.15;99558.28;5022654;28;20045;-75
2021/05/14 03:39:44;;;;;;;7.35;2.28;;;;;;;12.98;56.54;99562.03;5021492;28;20558;-77
2021/05/14 03:42:16;;;;;;;5.40;2.30;;;;;;;12.96;56.30;99565.72;5023123;28;20128;-77
2021/05/14 03:44:43;;;;;;;11.20;1.60;;;;;;;13.14;55.38;99568.81;5023688;28;20466;-76
2021/05/14 03:47:11;;;;;;;4.82;1.60;;;;;;;13.22;54.75;99566.53;5019479;28;22425;-78
2021/05/14 03:49:39;;;;;;;4.93;1.65;;;;;;;13.02;55.79;99570.53;5023801;28;20039;-77
2021/05/14 03:52:11;;;;;;;2.67;1.50;;;;;;;13.00;55.79;99573.25;5023557;28;20080;-78
2021/05/14 03:54:39;;;;;;;7.63;1.70;;;;;;;12.94;56.13;99575.44;5020579;28;20072;-76
2021/05/14 03:57:07;;;;;;;5.63;1.50;;;;;;;12.80;56.79;99569.41;5022021;28;22211;-77
2021/05/14 03:59:35;;;;;;;9.10;2.20;;;;;;;12.82;56.43;99569.31;5022691;28;20057;-77
2021/05/14 04:02:02;;;;;;;3.42;1.40;;;;;;;12.85;57.66;99577.78;5023362;28;20044;-77
2021/05/14 04:04:31;;;;;;;8.25;2.17;;;;;;;12.91;57.07;99568.66;5025207;28;20042;-76
2021/05/14 04:07:00;;;;;;;7.18;2.70;;;;;;;12.97;57.50;99573.47;5024777;28;20077;-76
2021/05/14 04:09:29;;;;;;;9.23;2.55;;;;;;;12.95;57.15;99571.91;5021403;28;20056;-72
2021/05/14 04:12:09;;;;;;;4.68;1.98;;;;;;;13.08;56.52;99576.16;5019251;28;20084;-74
2021/05/14 04:14:36;;;;;;;9.75;2.50;;;;;;;13.37;55.75;99581.13;5019206;28;20166;-73
2021/05/14 04:17:20;;;;;;;7.30;2.60;;;;;;;13.08;56.40;99591.84;5023168;28;20446;-72
2021/05/14 04:19:48;;;;;;;4.28;1.90;;;;;;;13.08;57.86;99583.16;5026008;28;20046;-72
2021/05/14 04:22:15;;;;;;;9.18;2.72;;;;;;;13.22;57.88;99585.69;5019850;28;20111;-77
2021/05/14 04:24:41;;;;;;;3.65;1.70;;;;;;;13.11;57.77;99586.41;5021840;28;20595;-77
2021/05/14 04:27:08;;;;;;;12.85;3.20;;;;;;;13.35;56.91;99590.88;5023343;28;20072;-77
2021/05/14 04:29:37;;;;;;;6.43;2.45;;;;;;;13.30;57.09;99592.97;5007387;28;20042;-76
2021/05/14 04:32:04;;;;;;;6.03;2.10;;;;;;;13.34;57.22;99589.19;5024265;28;20042;-75
2021/05/14 04:34:31;;;;;;;5.68;2.42;;;;;;;13.42;57.12;99584.22;5019435;28;20049;-73
2021/05/14 04:37:03;;;;;;;6.18;2.33;;;;;;;13.43;56.68;99591.16;5026955;28;20080;-70
2021/05/14 04:39:30;;;;;;;5.35;2.33;;;;;;;13.50;56.54;99592.38;5033607;28;20133;-73
2021/05/14 04:41:58;;;;;;;5.57;2.25;;;;;;;13.48;56.78;99593.44;5039226;28;20038;-72
2021/05/14 04:44:26;;;;;;;4.68;1.92;;;;;;;13.59;56.23;99596.97;5016964;28;20088;-72
2021/05/14 04:46:53;;;;;;;6.43;2.05;;;;;;;13.59;56.25;99591.72;5046359;28;20049;-73
2021/05/14 04:49:21;;;;;;;7.47;2.22;;;;;;;13.75;56.56;99601.09;5048899;28;20051;-74
2021/05/14 04:51:49;;;;;;;5.88;2.35;;;;;;;13.86;55.81;99604.59;5044293;28;20125;-74
2021/05/14 04:54:16;;;;;;;7.75;1.73;;;;;;;14.03;55.69;99607.72;5042560;28;20115;-75
2021/05/14 04:56:43;;;;;;;4.30;2.05;;;;;;;14.29;55.27;99604.00;5050631;28;20040;-73
2021/05/14 04:59:10;;;;;;;7.78;2.88;;;;;;;14.34;55.36;99607.09;5045145;28;20432;-73
2021/05/14 05:01:37;;;;;;;9.38;2.35;;;;;;;14.36;55.08;99612.22;5044021;28;20475;-74
2021/05/14 05:04:04;;;;;;;6.28;2.58;;;;;;;14.82;54.72;99616.63;5044430;28;20587;-74
2021/05/14 05:06:33;;;;;;;5.75;2.33;;;;;;;15.26;53.94;99617.53;5044454;28;20526;-73
2021/05/14 05:09:00;;;;;;;3.97;2.47;;;;;;;15.56;53.17;99614.25;5038369;28;20527;-74
2021/05/14 05:11:27;;;;;;;7.85;2.90;;;;;;;15.73;51.15;99611.13;5016579;28;20572;-72
2021/05/14 05:13:53;;;;;;;3.08;1.75;;;;;;;15.99;50.34;99614.25;5029862;28;20199;-72
2021/05/14 05:16:20;;;;;;;5.78;2.22;;;;;;;16.24;49.69;99616.53;5033868;28;20415;-73
2021/05/14 05:18:47;;;;;;;10.68;2.70;;;;;;;16.64;48.36;99618.41;5014584;28;20041;-73
2021/05/14 05:21:14;;;;;;;11.27;2.97;;;;;;;16.90;47.09;99623.28;5031597;28;20062;-70
2021/05/14 05:23:41;;;;;;;7.13;2.83;;;;;;;16.66;50.13;99621.72;5031890;28;20107;-72
2021/05/14 05:26:08;;;;;;;7.05;2.78;;;;;;;17.01;50.06;99621.38;5031834;28;20511;-75
2021/05/14 05:28:35;;;;;;;10.18;4.28;;;;;;;17.13;48.09;99624.75;5031891;28;20045;-73
2021/05/14 05:31:02;;;;;;;16.38;3.80;;;;;;;17.24;48.44;99629.06;5044419;28;20040;-73
2021/05/14 05:33:29;;;;;;;15.65;3.42;;;;;;;17.89;47.80;99625.03;5036309;28;20442;-68
2021/05/14 05:35:56;;;;;;;8.00;2.50;;;;;;;17.95;46.52;99631.56;5038350;28;20518;-69
2021/05/14 05:38:26;;;;;;;6.13;2.92;;;;;;;18.63;45.24;99636.78;5050069;28;20224;-69
2021/05/14 05:40:55;;;;;;;6.45;2.90;;;;;;;18.93;44.99;99638.38;5021239;28;20404;-70
2021/05/14 05:43:22;;;;;;;10.15;2.75;;;;;;;19.14;44.34;99628.44;5032670;28;20096;-70
2021/05/14 05:45:49;;;;;;;5.32;2.80;;;;;;;19.18;44.48;99631.63;5044715;28;20069;-70
2021/05/14 05:48:16;;;;;;;11.75;3.80;;;;;;;19.60;43.13;99629.28;5047987;28;20125;-71
2021/05/14 05:50:49;;;;;;;15.95;4.75;;;;;;;19.51;43.20;99622.25;5052181;28;20045;-77
2021/05/14 05:53:16;;;;;;;8.38;3.90;;;;;;;19.82;43.84;99628.88;5049772;28;20048;-71
2021/05/14 05:55:43;;;;;;;13.43;3.53;;;;;;;20.14;43.31;99630.16;5053397;28;20033;-74
2021/05/14 05:58:12;;;;;;;8.15;2.63;;;;;;;20.45;42.44;99635.81;5053156;28;20121;-77
2021/05/14 06:00:40;;;;;;;7.45;3.42;;;;;;;20.87;41.95;99643.91;5054678;28;20052;-77
2021/05/14 06:03:10;;;;;;;12.48;3.70;;;;;;;21.08;40.73;99647.97;5045487;28;20038;-74
2021/05/14 06:05:41;;;;;;;13.60;4.15;;;;;;;21.30;40.33;99654.56;5046837;28;20053;-73
2021/05/14 06:08:08;;;;;;;12.68;4.60;;;;;;;21.39;40.97;99651.78;5047045;28;20041;-73
2021/05/14 06:10:36;;;;;;;7.75;4.60;;;;;;;20.81;41.96;99659.59;5048313;28;20441;-72
2021/05/14 06:13:03;;;;;;;11.23;4.15;;;;;;;21.64;40.74;99657.19;5050112;28;20056;-71
2021/05/14 06:15:31;;;;;;;10.48;5.35;;;;;;;21.80;39.85;99651.91;5050036;28;20418;-69
2021/05/14 06:17:58;;;;;;;8.75;5.75;;;;;;;22.09;39.72;99655.91;5052299;28;20453;-72
2021/05/14 06:20:27;;;;;;;20.83;5.95;;;;;;;22.14;38.97;99659.75;5051052;28;20515;-72
2021/05/14 06:22:55;;;;;;;8.20;5.05;;;;;;;22.32;39.84;99651.66;5053398;28;20045;-72
2021/05/14 06:25:27;;;;;;;13.48;7.40;;;;;;;21.43;41.25;99655.78;5049094;28;20132;-73
2021/05/14 06:27:54;;;;;;;10.75;6.50;;;;;;;21.49;41.72;99656.97;5041705;28;20037;-73
2021/05/14 06:30:21;;;;;;;10.85;6.35;;;;;;;22.73;40.13;99654.22;5049040;28;20060;-73
2021/05/14 06:32:48;;;;;;;11.90;7.07;;;;;;;22.58;39.80;99666.53;5025803;28;20045;-73
2021/05/14 06:35:15;;;;;;;11.80;6.85;;;;;;;23.40;37.82;99662.69;5045276;28;20044;-73
2021/05/14 06:37:44;;;;;;;13.50;7.47;;;;;;;22.47;38.20;99665.06;5048393;28;20483;-72
2021/05/14 06:40:11;;;;;;;13.02;6.20;;;;;;;23.22;38.21;99662.09;5049977;28;20075;-74
2021/05/14 06:42:38;;;;;;;14.65;7.00;;;;;;;23.23;37.94;99655.78;5049118;28;20128;-72
2021/05/14 06:45:06;;;;;;;8.43;5.95;;;;;;;23.92;37.01;99659.44;5050925;28;20049;-72
2021/05/14 06:47:33;;;;;;;12.88;6.40;;;;;;;24.52;35.96;99663.97;5051958;28;20049;-72
2021/05/14 06:50:04;;;;;;;9.98;6.13;;;;;;;24.31;36.67;99674.44;5053369;28;20045;-72
2021/05/14 06:52:33;;;;;;;11.43;7.70;;;;;;;23.84;36.21;99674.63;5043643;28;20037;-73
2021/05/14 06:55:02;;;;;;;10.82;6.00;;;;;;;24.42;35.99;99678.56;5046121;28;20060;-73
2021/05/14 06:57:29;;;;;;;9.90;6.70;;;;;;;24.62;34.64;99671.72;5045485;28;20121;-71
2021/05/14 06:59:56;;;;;;;9.13;5.35;;;;;;;25.25;33.94;99669.56;5047692;28;20065;-68
2021/05/14 07:02:23;;;;;;;7.35;3.78;;;;;;;24.82;34.89;99669.31;5031309;28;20073;-71
2021/05/14 07:04:50;;;;;;;7.28;3.28;;;;;;;25.59;33.50;99672.44;5048929;28;20082;-71
2021/05/14 07:07:17;;;;;;;12.45;4.20;;;;;;;24.61;34.21;99682.53;5051565;28;20081;-71
2021/05/14 07:09:45;;;;;;;10.57;3.75;;;;;;;25.67;33.08;99676.00;5051178;28;20044;-72
2021/05/14 07:12:12;;;;;;;8.38;3.60;;;;;;;26.05;33.05;99672.16;5052216;28;20044;-70
2021/05/14 07:14:40;;;;;;;6.07;2.55;;;;;;;25.85;32.77;99671.13;5036534;28;20563;-71
2021/05/14 07:17:12;;;;;;;10.57;4.55;;;;;;;25.60;33.27;99674.09;5045704;28;20064;-72
2021/05/14 07:19:39;;;;;;;9.73;3.45;;;;;;;25.71;33.05;99672.78;5045008;28;20053;-71
2021/05/14 07:22:06;;;;;;;13.35;4.53;;;;;;;26.25;32.75;99677.66;5029176;28;20033;-71
2021/05/14 07:24:33;;;;;;;10.75;3.28;;;;;;;26.50;31.69;99679.97;5048313;28;20081;-73
2021/05/14 07:27:05;;;;;;;10.10;4.78;;;;;;;25.60;33.02;99675.94;5048222;28;20048;-72
2021/05/14 07:29:34;;;;;;;9.82;3.00;;;;;;;25.21;32.75;99678.94;5032994;28;20053;-73
2021/05/14 07:35:08;;;;;;;8.63;2.95;;;;;;;25.38;31.69;99675.06;5048629;28;20046;-73
2021/05/14 07:37:37;;;;;;;7.80;2.40;;;;;;;26.30;31.55;99669.06;5044348;28;20426;-73
2021/05/14 07:40:06;;;;;;;7.72;2.17;;;;;;;26.42;31.53;99678.28;5045670;28;20049;-72
2021/05/14 07:42:44;;;;;;;6.68;2.55;;;;;;;27.09;30.03;99671.56;5046936;28;20519;-73
2021/05/14 07:45:12;;;;;;;8.88;2.70;;;;;;;26.22;30.72;99662.03;5046588;28;20041;-73
2021/05/14 07:47:59;;;;;;;6.95;2.38;;;;;;;26.41;30.64;99671.22;5049610;28;20124;-73
2021/05/14 07:50:27;;;;;;;7.15;3.38;;;;;;;26.87;30.44;99668.09;5047103;28;20069;-74
2021/05/14 07:52:54;;;;;;;6.07;2.67;;;;;;;26.35;31.90;99674.66;5022978;28;20053;-73
2021/05/14 07:55:23;;;;;;;7.95;2.70;;;;;;;26.19;31.74;99672.25;5050248;28;20071;-73
2021/05/14 07:57:56;;;;;;;5.90;2.25;;;;;;;27.02;29.26;99666.13;5043994;28;20085;-73
2021/05/14 08:00:23;;;;;;;4.43;1.38;;;;;;;26.78;30.42;99658.56;5040665;28;20451;-74
2021/05/14 08:02:51;;;;;;;3.40;2.03;;;;;;;27.23;29.80;99662.56;5042158;28;20068;-73
2021/05/14 08:05:18;;;;;;;5.35;2.38;;;;;;;26.32;31.07;99667.88;5046840;28;20087;-73
2021/05/14 08:08:07;;;;;;;9.57;2.13;;;;;;;26.66;30.72;99669.00;5025581;28;20496;-72
2021/05/14 08:10:43;;;;;;;7.85;2.10;;;;;;;27.60;29.30;99672.00;5024660;28;20042;-79
2021/05/14 08:13:23;;;;;;;8.23;2.67;;;;;;;27.07;28.42;99671.75;5050058;28;20052;-78
2021/05/14 08:15:51;;;;;;;9.23;2.63;;;;;;;27.42;28.57;99663.66;5049426;28;20492;-79
2021/05/14 08:18:18;;;;;;;10.63;1.75;;;;;;;27.24;29.17;99668.75;5044390;28;20052;-79
2021/05/14 08:20:46;;;;;;;7.82;2.63;;;;;;;26.77;29.35;99672.97;5040169;28;20041;-78
2021/05/14 08:23:20;;;;;;;14.70;3.08;;;;;;;28.19;28.90;99675.84;5041896;28;20091;-78
2021/05/14 08:25:48;;;;;;;3.33;1.80;;;;;;;26.98;29.34;99674.75;5047084;28;20483;-77
2021/05/14 08:28:16;;;;;;;8.05;2.28;;;;;;;27.45;29.55;99662.47;5044307;28;20302;-77
2021/05/14 08:30:45;;;;;;;6.63;2.45;;;;;;;27.69;28.44;99669.94;5046392;28;20597;-77
2021/05/14 08:33:13;;;;;;;12.55;3.17;;;;;;;27.59;29.23;99672.16;5046494;28;20128;-77
2021/05/14 08:35:40;;;;;;;7.15;2.10;;;;;;;27.61;28.04;99672.81;5043695;28;20065;-76
2021/05/14 08:38:08;;;;;;;8.65;2.42;;;;;;;27.11;28.95;99667.66;5042393;28;20518;-76
2021/05/14 08:40:37;;;;;;;19.20;3.63;;;;;;;27.22;28.99;99670.78;5046846;28;20056;-76
2021/05/14 08:43:08;;;;;;;5.28;1.75;;;;;;;27.64;27.88;99673.22;5050431;28;20073;-77
2021/05/14 08:45:35;;;;;;;5.72;2.30;;;;;;;27.04;27.81;99673.97;5028519;28;20042;-78
2021/05/14 08:48:05;;;;;;;5.72;2.17;;;;;;;25.95;30.03;99686.84;5043070;28;20103;-76
2021/05/14 08:50:32;;;;;;;9.00;2.67;;;;;;;25.68;30.64;99670.50;5042369;28;20041;-78
2021/05/14 08:52:59;;;;;;;8.70;1.85;;;;;;;25.69;31.05;99676.66;5024786;28;20144;-76
2021/05/14 08:55:26;;;;;;;8.10;2.40;;;;;;;25.32;32.02;99686.47;5023540;28;20057;-75
2021/05/14 08:57:53;;;;;;;7.30;2.03;;;;;;;24.25;32.99;99686.66;5019653;28;20050;-76
2021/05/14 09:00:21;;;;;;;9.93;2.20;;;;;;;24.47;33.10;99679.66;5021898;28;20038;-76
2021/05/14 09:02:48;;;;;;;6.53;1.63;;;;;;;24.12;34.12;99688.22;5016943;28;20117;-76
2021/05/14 09:05:32;;;;;;;12.05;2.53;;;;;;;24.09;33.66;99675.28;5021929;28;20033;-77
2021/05/14 09:08:00;;;;;;;7.43;3.13;;;;;;;23.69;34.73;99671.88;5018998;28;20073;-77
2021/05/14 09:10:29;;;;;;;6.20;2.20;;;;;;;23.82;34.65;99682.78;5024120;28;20042;-78
2021/05/14 09:12:57;;;;;;;7.28;2.00;;;;;;;23.43;34.68;99682.78;5025316;28;20066;-78
2021/05/14 09:15:35;;;;;;;8.18;2.55;;;;;;;23.26;35.68;99682.84;5025645;28;20045;-78
2021/05/14 09:18:08;;;;;;;8.60;2.38;;;;;;;22.96;35.94;99687.13;5022041;28;20038;-77
2021/05/14 09:20:42;;;;;;;12.80;3.15;;;;;;;23.06;36.23;99680.75;5023251;28;20045;-77
2021/05/14 09:23:15;;;;;;;8.73;4.13;;;;;;;23.06;36.85;99678.09;5024158;28;20060;-78
2021/05/14 09:26:01;;;;;;;8.73;3.65;;;;;;;23.19;37.03;99683.72;5020537;28;20054;-77
2021/05/14 09:28:33;;;;;;;10.52;2.85;;;;;;;22.75;37.69;99686.78;5024590;28;20128;-77
2021/05/14 09:31:13;;;;;;;9.30;2.50;;;;;;;22.76;38.68;99683.13;5010863;28;20095;-77
2021/05/14 09:33:48;;;;;;;7.03;3.20;;;;;;;22.58;39.58;99683.31;5025673;28;20041;-76
2021/05/14 09:36:18;;;;;;;9.27;3.17;;;;;;;22.26;40.24;99681.50;5027118;28;20053;-77
2021/05/14 09:38:59;;;;;;;121.20;12.52;;;;;;;22.18;39.95;99682.31;5023552;28;20052;-77
2021/05/14 09:41:37;;;;;;;63.25;10.38;;;;;;;22.40;39.80;99675.53;5029097;28;20044;-77
2021/05/14 09:44:05;;;;;;;158.15;14.73;;;;;;;22.22;41.07;99680.19;5021185;28;20046;-77
2021/05/14 09:46:52;;;;;;;25.85;4.43;;;;;;;22.29;41.38;99686.47;5023611;28;20124;-77
2021/05/14 09:49:21;;;;;;;606.20;73.25;;;;;;;22.25;43.63;99684.31;5022810;28;20038;-77
2021/05/14 09:51:53;;;;;;;24.25;6.03;;;;;;;22.01;43.79;99675.31;5022118;28;20054;-77
2021/05/14 09:54:26;;;;;;;12.02;3.45;;;;;;;22.19;42.62;99685.81;5025312;28;20038;-77
2021/05/14 10:00:05;;;;;;;9.50;3.10;;;;;;;22.36;42.49;99687.47;5022885;28;20132;-77
2021/05/14 10:02:38;;;;;;;10.18;3.38;;;;;;;22.23;42.12;99689.81;5024966;28;20368;-77
2021/05/14 10:05:08;;;;;;;6.97;3.03;;;;;;;22.42;41.18;99688.63;5024183;28;20091;-77
2021/05/14 10:07:36;;;;;;;10.55;4.07;;;;;;;22.60;41.00;99686.66;5026779;28;20077;-73
2021/05/14 10:10:08;;;;;;;9.63;3.85;;;;;;;22.73;40.84;99688.78;5027242;28;20045;-75
2021/05/14 10:12:38;;;;;;;9.38;3.28;;;;;;;22.79;40.17;99689.94;5021714;28;20096;-76
2021/05/14 10:15:10;;;;;;;14.05;4.22;;;;;;;22.42;41.68;99678.84;5006402;28;20045;-75
2021/05/14 10:17:41;;;;;;;13.40;3.63;;;;;;;22.55;43.29;99677.53;5026585;28;20068;-75
2021/05/14 10:20:17;;;;;;;12.10;4.32;;;;;;;22.54;40.85;99684.66;5022571;28;20052;-74
2021/05/14 10:22:46;;;;;;;20.05;5.55;;;;;;;22.54;41.98;99675.88;5022318;28;20451;-76
2021/05/14 10:25:20;;;;;;;10.00;4.70;;;;;;;22.42;41.03;99665.56;5030819;28;20083;-75
2021/05/14 10:27:47;;;;;;;10.10;4.15;;;;;;;22.40;41.67;99669.38;5032846;28;20056;-76
2021/05/14 10:30:14;;;;;;;8.32;3.67;;;;;;;22.40;40.72;99670.22;5033991;28;20482;-76
2021/05/14 10:32:44;;;;;;;11.38;4.43;;;;;;;22.33;41.13;99669.22;5033898;28;20042;-76
2021/05/14 10:35:15;;;;;;;15.55;4.40;;;;;;;22.14;40.86;99673.03;5034572;28;20488;-76
2021/05/14 10:37:57;;;;;;;10.23;4.30;;;;;;;22.62;40.89;99673.19;5028910;28;20107;-75
2021/05/14 10:40:31;;;;;;;8.20;3.72;;;;;;;22.59;40.73;99665.56;5023442;28;20139;-75
2021/05/14 10:42:59;;;;;;;;;;;;;;;22.33;40.02;99663.09;5027146;28;20065;-75
2021/05/14 10:45:38;;;;;;;11.85;4.07;;;;;;;22.59;40.66;99655.78;5020096;28;19929;-75
2021/05/14 10:48:17;;;;;;;8.63;3.30;;;;;;;22.45;41.91;99664.41;5022217;28;20041;-75
2021/05/14 10:50:47;;;;;;;9.45;4.05;;;;;;;22.46;41.40;99661.56;5028502;28;20052;-75
2021/05/14 10:53:17;;;;;;;7.85;3.38;;;;;;;22.57;40.76;99664.88;5026393;28;20116;-75
2021/05/14 10:55:45;;;;;;;10.95;5.00;;;;;;;22.54;41.01;99659.94;5024142;28;20103;-76
2021/05/14 10:58:46;;;;;;;10.90;3.58;;;;;;;22.75;40.98;99658.41;5024273;28;20129;-75
2021/05/14 11:01:33;;;;;;;10.32;3.58;;;;;;;22.82;40.61;99649.75;5025546;28;20077;-75
2021/05/14 11:04:03;;;;;;;7.30;3.95;;;;;;;22.32;40.24;99651.66;5027632;28;20428;-75
2021/05/14 11:06:44;;;;;;;9.80;3.78;;;;;;;22.45;41.11;99645.81;5025433;28;20048;-75
2021/05/14 11:09:12;;;;;;;10.38;4.45;;;;;;;22.31;41.52;99639.34;5027161;28;20124;-75
2021/05/14 11:11:56;;;;;;;9.85;4.20;;;;;;;22.51;40.54;99631.88;5023287;28;20050;-75
2021/05/14 11:14:25;;;;;;;6.82;4.32;;;;;;;22.60;39.97;99636.19;5027489;28;20059;-75
2021/05/14 11:16:56;;;;;;;7.35;4.10;;;;;;;22.81;40.10;99642.78;5021701;28;20042;-75
2021/05/14 11:19:30;;;;;;;10.10;3.33;;;;;;;22.91;40.20;99644.28;5021565;28;20044;-76
2021/05/14 11:22:01;;;;;;;7.73;4.17;;;;;;;23.01;40.85;99654.72;5019928;28;20128;-75
2021/05/14 11:24:36;;;;;;;7.07;3.00;;;;;;;22.86;40.12;99656.38;5023757;28;20072;-74
2021/05/14 11:27:07;;;;;;;2.17;0.80;;;;;;;22.74;40.00;99662.06;5022558;28;20500;-74
2021/05/14 11:29:46;;;;;;;5.20;1.00;;;;;;;22.72;41.82;99657.91;5024459;28;20045;-76
2021/05/14 11:32:17;;;;;;;8.52;2.25;;;;;;;22.58;43.67;99658.56;5024144;28;20045;-76
2021/05/14 11:34:57;;;;;;;11.45;2.55;;;;;;;22.43;47.16;99669.06;5021666;28;20136;-75
2021/05/14 11:37:34;;;;;;;5.80;1.73;;;;;;;22.11;48.42;99665.41;5021091;28;20045;-73
2021/05/14 11:40:15;;;;;;;4.30;0.90;;;;;;;22.03;49.35;99659.22;5032890;28;20045;-74
2021/05/14 11:42:50;;;;;;;2.08;1.25;;;;;;;22.08;49.98;99656.91;5039632;28;20049;-73
2021/05/14 11:45:23;;;;;;;2.53;1.23;;;;;;;22.15;48.62;99655.28;5034404;28;20041;-74
2021/05/14 11:47:59;;;;;;;1.65;0.90;;;;;;;22.20;49.14;99653.78;5036280;28;20054;-73